Time;durP1;ratioP1;P1;durP2;ratioP2;P2;SDS_P1;SDS_P2;PMS_P1;PMS_P2;Temp;Humidity;BMP_temperature;BMP_pressure;BME280_temperature;BME280_humidity;BME280_pressure;Samples;Min_cycle;Max_cycle;Signal;HPM_P1;HPM_P2
2022/03/02 00:00:20;;;;;;;34.73;21.77;;;;;;;5.40;65.98;102599.22;5030777;28;20048;-67
2022/03/02 00:02:45;;;;;;;41.33;22.00;;;;;;;5.32;65.97;102601.50;5030481;28;20033;-68
2022/03/02 00:05:11;;;;;;;34.73;21.47;;;;;;;5.28;66.23;102593.78;5030547;28;20029;-68
2022/03/02 00:07:37;;;;;;;38.30;22.90;;;;;;;5.22;66.39;102596.78;5031368;28;20094;-67
2022/03/02 00:10:03;;;;;;;36.50;21.70;;;;;;;5.24;66.35;102604.59;5029375;28;20033;-67
2022/03/02 00:12:30;;;;;;;35.10;20.67;;;;;;;5.23;66.16;102602.91;5030555;28;20029;-67
2022/03/02 00:14:55;;;;;;;38.10;21.33;;;;;;;5.23;65.96;102603.75;5030572;28;20124;-67
2022/03/02 00:17:20;;;;;;;33.30;19.60;;;;;;;5.24;65.56;102597.53;5029447;28;20112;-68
2022/03/02 00:19:46;;;;;;;36.60;21.03;;;;;;;5.24;64.97;102596.69;5028556;28;20055;-67
2022/03/02 00:22:11;;;;;;;31.97;20.00;;;;;;;5.20;64.54;102593.41;5029635;28;20041;-67
2022/03/02 00:24:37;;;;;;;32.33;19.63;;;;;;;5.23;64.41;102597.63;5028880;28;20083;-67
2022/03/02 00:27:03;;;;;;;36.30;21.33;;;;;;;5.22;63.97;102588.03;5029755;28;20405;-67
2022/03/02 00:29:28;;;;;;;37.37;21.47;;;;;;;5.18;63.85;102597.03;5028253;28;20034;-66
2022/03/02 00:31:53;;;;;;;37.17;21.43;;;;;;;5.14;63.83;102587.63;5030071;28;20479;-67
2022/03/02 00:34:19;;;;;;;33.53;21.40;;;;;;;5.11;63.87;102588.66;5028814;28;20051;-67
2022/03/02 00:36:44;;;;;;;34.50;21.00;;;;;;;5.13;63.84;102593.84;5029393;28;20116;-67
2022/03/02 00:39:10;;;;;;;38.80;21.50;;;;;;;5.14;64.09;102595.53;5028145;28;20063;-68
2022/03/02 00:41:35;;;;;;;33.03;20.63;;;;;;;5.12;64.46;102585.09;5026391;28;20025;-67
2022/03/02 00:44:02;;;;;;;33.97;20.20;;;;;;;5.15;64.40;102589.31;5028690;28;20491;-67
2022/03/02 00:46:29;;;;;;;34.73;21.13;;;;;;;5.16;64.38;102585.75;5028856;28;20052;-67
2022/03/02 00:48:59;;;;;;;34.57;20.97;;;;;;;5.17;64.13;102585.66;5025390;28;20052;-67
2022/03/02 00:51:26;;;;;;;37.00;20.70;;;;;;;5.19;64.20;102583.78;5029329;28;20036;-67
2022/03/02 00:53:52;;;;;;;33.60;20.40;;;;;;;5.20;64.58;102585.50;5028396;28;20108;-68
2022/03/02 00:56:18;;;;;;;37.40;20.57;;;;;;;5.18;64.70;102582.09;5028995;28;20346;-67
2022/03/02 00:58:44;;;;;;;35.23;20.87;;;;;;;5.18;64.66;102583.88;5027759;28;20543;-66
2022/03/02 01:01:09;;;;;;;34.77;20.33;;;;;;;5.14;64.96;102571.84;5027259;28;20519;-67
2022/03/02 01:03:34;;;;;;;33.30;20.77;;;;;;;5.14;65.18;102577.09;5028542;28;20029;-68
2022/03/02 01:06:00;;;;;;;36.40;20.60;;;;;;;5.15;64.98;102565.63;5028815;28;20037;-66
2022/03/02 01:08:26;;;;;;;35.20;20.93;;;;;;;5.14;65.28;102574.47;5028151;28;20394;-67
2022/03/02 01:10:51;;;;;;;33.17;20.53;;;;;;;5.11;65.64;102566.75;5027617;28;20041;-67
2022/03/02 01:13:17;;;;;;;33.37;20.10;;;;;;;5.10;65.75;102565.06;5028334;28;20041;-67
2022/03/02 01:15:42;;;;;;;33.27;20.60;;;;;;;5.08;65.58;102572.22;5028731;28;20029;-67
2022/03/02 01:18:07;;;;;;;35.17;21.70;;;;;;;4.98;65.82;102561.38;5027911;28;20029;-67
2022/03/02 01:20:33;;;;;;;34.47;20.93;;;;;;;5.06;65.56;102567.03;5027712;28;20018;-67
2022/03/02 01:22:58;;;;;;;32.67;20.97;;;;;;;5.08;65.77;102569.56;5028106;28;20378;-67
2022/03/02 01:25:23;;;;;;;32.40;20.73;;;;;;;5.07;65.64;102563.47;5028641;28;20473;-67
2022/03/02 01:27:49;;;;;;;33.73;20.27;;;;;;;5.04;65.56;102560.16;5027792;28;20473;-67
2022/03/02 01:30:14;;;;;;;31.47;19.70;;;;;;;5.05;65.61;102553.97;5027211;28;20036;-66
2022/03/02 01:32:39;;;;;;;33.80;20.17;;;;;;;5.05;65.50;102553.97;5027934;28;20175;-66
2022/03/02 01:35:05;;;;;;;34.60;19.87;;;;;;;5.05;65.73;102548.69;5027998;28;20040;-68
2022/03/02 01:37:30;;;;;;;35.43;20.10;;;;;;;5.03;65.50;102546.16;5026833;28;20150;-67
2022/03/02 01:39:55;;;;;;;31.97;19.80;;;;;;;5.04;65.26;102545.22;5024640;28;20037;-67
2022/03/02 01:42:21;;;;;;;34.20;19.87;;;;;;;5.07;65.72;102552.94;5028031;28;20029;-67
2022/03/02 01:44:46;;;;;;;34.87;20.67;;;;;;;5.08;66.04;102541.47;5027644;28;20025;-67
2022/03/02 01:47:11;;;;;;;33.10;19.80;;;;;;;5.09;65.65;102540.50;5027781;28;20106;-67
2022/03/02 01:49:36;;;;;;;31.80;20.03;;;;;;;5.08;65.60;102536.19;5025600;28;20037;-67
2022/03/02 01:52:03;;;;;;;34.03;20.00;;;;;;;5.09;65.95;102539.66;5027881;28;20126;-67
2022/03/02 01:54:28;;;;;;;33.60;20.10;;;;;;;5.09;65.96;102534.41;5027407;28;20079;-67
2022/03/02 01:56:53;;;;;;;32.27;20.00;;;;;;;5.09;65.58;102537.88;5027487;28;20060;-67
2022/03/02 01:59:19;;;;;;;32.60;19.70;;;;;;;5.12;65.82;102536.84;5027019;28;20036;-67
2022/03/02 02:01:44;;;;;;;28.47;18.87;;;;;;;5.12;65.28;102532.44;5027948;28;20492;-68
2022/03/02 02:04:10;;;;;;;33.83;19.37;;;;;;;5.12;64.71;102527.16;5026590;28;20030;-66
2022/03/02 02:06:36;;;;;;;33.17;18.40;;;;;;;5.17;64.11;102529.50;5026319;28;20091;-67
2022/03/02 02:09:05;;;;;;;33.50;18.70;;;;;;;5.16;63.61;102526.03;5026802;28;20036;-67
2022/03/02 02:11:31;;;;;;;33.85;18.83;;;;;;;5.18;63.32;102526.78;5026310;28;20503;-68
2022/03/02 02:13:57;;;;;;;30.13;18.00;;;;;;;5.17;63.22;102527.72;5027591;28;20041;-67
2022/03/02 02:16:23;;;;;;;34.23;19.73;;;;;;;5.18;63.18;102524.13;5027505;28;20040;-67
2022/03/02 02:18:50;;;;;;;30.90;19.23;;;;;;;5.19;63.23;102525.00;5026643;28;20036;-67
2022/03/02 02:21:16;;;;;;;31.30;18.87;;;;;;;5.17;63.00;102526.88;5027019;28;20457;-67
2022/03/02 02:23:41;;;;;;;29.53;18.50;;;;;;;5.17;63.33;102522.44;5026789;28;20505;-65
2022/03/02 02:26:07;;;;;;;39.50;20.27;;;;;;;5.16;63.36;102518.13;5027475;28;20045;-67
2022/03/02 02:28:32;;;;;;;31.63;18.83;;;;;;;5.14;63.60;102516.53;5026634;28;20142;-67
2022/03/02 02:31:00;;;;;;;31.63;19.13;;;;;;;5.11;63.40;102514.09;5026477;28;20550;-67
2022/03/02 02:33:26;;;;;;;34.13;19.40;;;;;;;5.11;63.63;102509.66;5027071;28;20082;-66
2022/03/02 02:35:52;;;;;;;35.53;19.30;;;;;;;5.10;63.40;102507.97;5026632;28;20025;-67
2022/03/02 02:38:20;;;;;;;32.50;19.60;;;;;;;5.10;63.63;102509.75;5026287;28;20542;-67
2022/03/02 02:40:45;;;;;;;30.57;18.20;;;;;;;5.07;62.94;102502.91;5026843;28;20033;-67
2022/03/02 02:43:11;;;;;;;31.80;18.20;;;;;;;5.06;62.99;102500.38;5027154;28;20033;-67
2022/03/02 02:45:37;;;;;;;32.13;18.87;;;;;;;5.06;62.66;102490.69;5026692;28;20029;-67
2022/03/02 02:48:04;;;;;;;29.70;17.90;;;;;;;5.02;62.59;102498.88;5026942;28;20483;-67
2022/03/02 02:50:32;;;;;;;30.90;18.50;;;;;;;5.03;62.08;102496.13;5023542;28;21400;-67
2022/03/02 02:53:00;;;;;;;32.57;18.40;;;;;;;4.97;61.96;102496.53;5027355;28;20029;-66
2022/03/02 02:55:28;;;;;;;29.77;18.00;;;;;;;4.97;62.07;102497.38;5027388;28;20033;-67
2022/03/02 02:57:54;;;;;;;30.00;18.07;;;;;;;4.97;61.87;102494.72;5026920;28;20104;-67
2022/03/02 03:00:21;;;;;;;31.60;18.40;;;;;;;4.97;61.71;102496.53;5025859;28;20535;-67
2022/03/02 03:02:52;;;;;;;31.70;18.90;;;;;;;4.94;61.54;102491.44;5027576;28;20033;-67
2022/03/02 03:05:21;;;;;;;31.63;18.43;;;;;;;4.90;61.42;102487.28;5023298;28;20449;-67
2022/03/02 03:07:48;;;;;;;34.05;18.20;;;;;;;4.87;61.38;102484.84;5026219;28;20124;-67
2022/03/02 03:10:15;;;;;;;31.40;18.10;;;;;;;4.85;61.63;102486.72;5027817;28;20056;-67
2022/03/02 03:12:42;;;;;;;30.20;18.47;;;;;;;4.83;61.55;102483.34;5026837;28;20041;-66
2022/03/02 03:15:09;;;;;;;28.57;17.10;;;;;;;4.80;61.55;102484.38;5027173;28;20473;-67
2022/03/02 03:17:35;;;;;;;30.20;18.17;;;;;;;4.74;61.69;102473.38;5026906;28;20021;-67
2022/03/02 03:20:01;;;;;;;29.50;17.67;;;;;;;4.74;61.59;102481.25;5026115;28;20326;-66
2022/03/02 03:22:26;;;;;;;30.20;17.57;;;;;;;4.72;61.42;102480.50;5026046;28;20028;-67
2022/03/02 03:24:53;;;;;;;29.80;18.20;;;;;;;4.71;61.35;102478.81;5026779;28;20029;-67
2022/03/02 03:27:18;;;;;;;31.80;17.83;;;;;;;4.70;61.58;102485.03;5025599;28;20116;-67
2022/03/02 03:29:43;;;;;;;30.97;18.23;;;;;;;4.69;61.85;102480.69;5025387;28;20104;-67
2022/03/02 03:32:09;;;;;;;30.97;17.93;;;;;;;4.68;61.77;102479.00;5026426;28;20033;-67
2022/03/02 03:34:34;;;;;;;28.53;17.70;;;;;;;4.66;61.82;102487.00;5025042;28;20033;-67
2022/03/02 03:36:59;;;;;;;32.40;17.63;;;;;;;4.65;61.57;102480.88;5026391;28;20560;-67
2022/03/02 03:39:25;;;;;;;32.47;18.40;;;;;;;4.60;61.44;102482.91;5024895;28;20024;-67
2022/03/02 03:41:50;;;;;;;29.97;17.50;;;;;;;4.58;61.15;102474.28;5026097;28;20539;-66
2022/03/02 03:44:15;;;;;;;29.90;18.13;;;;;;;4.57;60.85;102477.00;5026165;28;20075;-67
2022/03/02 03:46:40;;;;;;;37.20;18.40;;;;;;;4.54;60.95;102477.19;5026805;28;20524;-68
2022/03/02 03:49:06;;;;;;;33.83;18.40;;;;;;;4.46;61.08;102479.44;5024233;28;20036;-65
2022/03/02 03:51:31;;;;;;;30.77;18.03;;;;;;;4.47;61.23;102474.06;5022048;28;20035;-67
2022/03/02 03:53:56;;;;;;;31.23;18.13;;;;;;;4.42;61.02;102470.88;5026074;28;20032;-68
2022/03/02 03:56:22;;;;;;;32.63;18.07;;;;;;;4.42;60.82;102476.13;5022542;28;20025;-66
2022/03/02 03:58:47;;;;;;;32.90;18.40;;;;;;;4.39;61.11;102478.97;5024938;28;20033;-67
2022/03/02 04:01:13;;;;;;;30.60;18.50;;;;;;;4.37;61.00;102472.94;5029135;28;20481;-68
2022/03/02 04:03:38;;;;;;;39.80;18.23;;;;;;;4.31;61.04;102468.88;5029903;28;20021;-66
2022/03/02 04:06:04;;;;;;;31.63;17.47;;;;;;;4.29;61.10;102475.16;5029973;28;20055;-67
2022/03/02 04:08:29;;;;;;;31.73;18.33;;;;;;;4.23;60.95;102475.50;5029537;28;20030;-67
2022/03/02 04:10:54;;;;;;;30.97;17.93;;;;;;;4.21;61.21;102475.59;5029640;28;20131;-66
2022/03/02 04:13:20;;;;;;;36.83;18.40;;;;;;;4.21;61.43;102467.72;5029841;28;20160;-66
2022/03/02 04:15:45;;;;;;;32.00;18.13;;;;;;;4.21;61.46;102458.97;5029121;28;20022;-67
2022/03/02 04:18:11;;;;;;;32.03;17.83;;;;;;;4.20;61.52;102457.28;5027321;28;20181;-67
2022/03/02 04:20:38;;;;;;;29.03;17.37;;;;;;;4.18;61.39;102449.50;5030523;28;20022;-66
2022/03/02 04:23:04;;;;;;;31.80;18.20;;;;;;;4.16;61.50;102456.63;5029997;28;20120;-67
2022/03/02 04:25:29;;;;;;;33.57;17.80;;;;;;;4.13;61.46;102448.06;5024515;28;20109;-67
2022/03/02 04:27:54;;;;;;;32.00;17.93;;;;;;;4.14;61.39;102453.25;5030020;28;20100;-68
2022/03/02 04:30:20;;;;;;;30.57;17.30;;;;;;;4.12;61.52;102454.28;5033073;28;20324;-66
2022/03/02 04:32:46;;;;;;;30.90;17.57;;;;;;;4.08;61.79;102444.88;5030529;28;20029;-66
2022/03/02 04:35:12;;;;;;;32.13;17.23;;;;;;;4.10;61.89;102440.38;5030527;28;20033;-67
2022/03/02 04:37:39;;;;;;;30.73;16.77;;;;;;;4.09;61.61;102449.19;5030877;28;20029;-67
2022/03/02 04:40:07;;;;;;;30.23;17.67;;;;;;;4.06;61.53;102438.84;5029499;28;20104;-67
2022/03/02 04:42:32;;;;;;;32.47;16.97;;;;;;;4.05;61.58;102440.63;5030423;28;20405;-67
2022/03/02 04:44:58;;;;;;;31.67;17.03;;;;;;;4.04;61.64;102434.50;5031100;28;20028;-67
2022/03/02 04:47:24;;;;;;;33.53;18.53;;;;;;;4.03;61.75;102435.44;5029793;28;20033;-66
2022/03/02 04:49:49;;;;;;;30.20;16.70;;;;;;;4.01;61.93;102426.81;5025783;28;20481;-67
2022/03/02 04:52:14;;;;;;;32.27;17.87;;;;;;;3.98;61.69;102434.88;5030241;28;20025;-67
2022/03/02 04:57:24;;;;;;;34.73;17.70;;;;;;;3.93;61.60;102423.78;5030322;28;20119;-67
2022/03/02 04:59:49;;;;;;;29.03;17.30;;;;;;;3.92;61.69;102426.50;5028796;28;20049;-66
2022/03/02 05:02:14;;;;;;;30.83;16.93;;;;;;;3.92;61.64;102426.50;5029320;28;20079;-67
2022/03/02 05:04:39;;;;;;;28.40;17.07;;;;;;;3.89;61.46;102424.06;5030726;28;20033;-67
2022/03/02 05:07:05;;;;;;;31.07;16.87;;;;;;;3.89;61.61;102421.41;5029152;28;20477;-66
2022/03/02 05:09:30;;;;;;;29.77;16.63;;;;;;;3.88;61.52;102432.88;5029587;28;20082;-67
2022/03/02 05:11:55;;;;;;;26.73;16.07;;;;;;;3.88;61.35;102427.63;5029119;28;20029;-67
2022/03/02 05:14:21;;;;;;;32.90;17.33;;;;;;;3.84;61.36;102416.44;5029513;28;20025;-67
2022/03/02 05:16:46;;;;;;;29.77;17.10;;;;;;;3.83;61.27;102424.41;5028992;28;20021;-66
2022/03/02 05:19:11;;;;;;;26.53;15.80;;;;;;;3.80;61.43;102419.34;5028965;28;20117;-67
2022/03/02 05:21:36;;;;;;;29.17;17.20;;;;;;;3.78;61.26;102419.44;5029793;28;20029;-66
2022/03/02 05:24:02;;;;;;;28.77;17.13;;;;;;;3.73;61.22;102421.44;5029614;28;20385;-67
2022/03/02 05:26:28;;;;;;;29.70;16.90;;;;;;;3.69;61.17;102412.91;5029378;28;20028;-67
2022/03/02 05:28:53;;;;;;;27.50;16.60;;;;;;;3.69;61.08;102420.78;5027990;28;20115;-67
2022/03/02 05:31:20;;;;;;;27.37;16.53;;;;;;;3.68;61.05;102413.81;5029223;28;20117;-67
2022/03/02 05:33:45;;;;;;;27.80;16.80;;;;;;;3.69;61.19;102412.03;5029669;28;20032;-67
2022/03/02 05:36:10;;;;;;;31.23;16.87;;;;;;;3.66;61.10;102413.06;5029076;28;20029;-66
2022/03/02 05:38:36;;;;;;;31.70;16.53;;;;;;;3.64;61.25;102416.72;5028933;28;20030;-67
2022/03/02 05:41:01;;;;;;;27.37;16.70;;;;;;;3.60;61.42;102413.44;5028893;28;20025;-67
2022/03/02 05:43:26;;;;;;;29.67;15.87;;;;;;;3.56;61.34;102413.69;5029625;28;20067;-67
2022/03/02 05:45:51;;;;;;;29.53;17.17;;;;;;;3.55;61.23;102412.84;5028838;28;20469;-67
2022/03/02 05:48:17;;;;;;;34.67;17.20;;;;;;;3.56;61.63;102411.06;5028564;28;20065;-67
2022/03/02 05:50:42;;;;;;;32.40;17.80;;;;;;;3.55;61.91;102406.75;5028540;28;20033;-66
2022/03/02 05:53:07;;;;;;;29.27;17.13;;;;;;;3.53;62.25;102412.09;5028629;28;20030;-66
2022/03/02 05:55:33;;;;;;;29.07;17.40;;;;;;;3.49;62.41;102407.09;5029474;28;20025;-67
2022/03/02 05:57:58;;;;;;;31.23;17.93;;;;;;;3.50;62.92;102408.78;5028359;28;20087;-68
2022/03/02 06:00:23;;;;;;;27.80;16.87;;;;;;;3.43;63.01;102413.50;5027924;28;20053;-66
2022/03/02 06:02:50;;;;;;;29.97;17.33;;;;;;;3.39;63.35;102412.84;5028770;28;20033;-67
2022/03/02 06:05:15;;;;;;;35.43;18.83;;;;;;;3.36;63.67;102415.63;5028726;28;20029;-68
2022/03/02 06:07:40;;;;;;;28.10;17.77;;;;;;;3.31;63.85;102415.06;5028562;28;20710;-67
2022/03/02 06:10:06;;;;;;;31.27;17.97;;;;;;;3.28;64.13;102419.63;5028235;28;20040;-67
2022/03/02 06:12:32;;;;;;;35.97;18.47;;;;;;;3.29;64.29;102416.91;5028535;28;20021;-67
2022/03/02 06:14:57;;;;;;;31.93;18.17;;;;;;;3.30;64.12;102421.25;5027901;28;20032;-67
2022/03/02 06:17:23;;;;;;;30.50;17.17;;;;;;;3.31;64.02;102417.69;5028348;28;20037;-67
2022/03/02 06:19:49;;;;;;;27.43;17.30;;;;;;;3.31;64.27;102415.06;5024370;28;20030;-67
2022/03/02 06:22:16;;;;;;;29.20;17.70;;;;;;;3.28;64.30;102415.22;5028480;28;20071;-67
2022/03/02 06:24:42;;;;;;;29.20;17.40;;;;;;;3.30;64.40;102418.63;5028060;28;20021;-67
2022/03/02 06:27:07;;;;;;;42.50;24.47;;;;;;;3.32;64.33;102418.53;5028558;28;20438;-67
2022/03/02 06:29:32;;;;;;;33.50;19.07;;;;;;;3.31;63.86;102425.56;5026579;28;20084;-66
2022/03/02 06:31:58;;;;;;;32.17;16.90;;;;;;;3.31;63.51;102414.22;5028281;28;20017;-67
2022/03/02 06:34:23;;;;;;;34.57;17.83;;;;;;;3.28;63.41;102415.22;5028269;28;20023;-67
2022/03/02 06:36:51;;;;;;;33.07;16.77;;;;;;;3.28;63.40;102424.88;5028300;28;20049;-66
2022/03/02 06:39:18;;;;;;;30.33;17.33;;;;;;;3.21;63.42;102428.78;5027480;28;20072;-66
2022/03/02 06:42:04;;;;;;;34.13;18.60;;;;;;;3.23;63.25;102438.25;5026614;28;20017;-67
2022/03/02 06:44:46;;;;;;;33.87;18.40;;;;;;;3.19;63.41;102434.13;5027712;28;20017;-67
2022/03/02 06:47:17;;;;;;;31.40;17.73;;;;;;;3.19;63.47;102431.50;5027005;28;20547;-67
2022/03/02 06:50:08;;;;;;;31.70;18.50;;;;;;;3.23;63.45;102440.03;5026227;28;20029;-67
2022/03/02 06:52:43;;;;;;;31.03;17.83;;;;;;;3.26;63.37;102439.88;5027640;28;20110;-67
2022/03/02 06:55:11;;;;;;;30.23;18.20;;;;;;;3.25;63.25;102436.41;5027382;28;20025;-67
2022/03/02 06:57:38;;;;;;;31.73;17.70;;;;;;;3.29;63.31;102437.94;5021840;28;20029;-67
2022/03/02 07:00:07;;;;;;;31.40;18.30;;;;;;;3.32;63.45;102437.75;5025741;28;20473;-67
2022/03/02 07:02:43;;;;;;;30.35;18.23;;;;;;;3.38;63.53;102437.41;5023742;28;20485;-67
2022/03/02 07:05:09;;;;;;;34.63;18.40;;;;;;;3.44;63.75;102444.09;5023432;28;20540;-66
2022/03/02 07:07:36;;;;;;;32.60;18.20;;;;;;;3.46;63.31;102444.00;5024978;28;20021;-67
2022/03/02 07:10:01;;;;;;;32.20;18.83;;;;;;;3.45;63.34;102439.69;5026547;28;20048;-67
2022/03/02 07:12:27;;;;;;;32.07;17.77;;;;;;;3.46;62.86;102433.50;5028128;28;20034;-67
2022/03/02 07:14:54;;;;;;;30.20;17.33;;;;;;;3.52;62.79;102451.56;5027593;28;20033;-67
2022/03/02 07:17:21;;;;;;;29.97;17.50;;;;;;;3.56;62.81;102443.44;5021368;28;20118;-67
2022/03/02 07:19:47;;;;;;;27.10;17.50;;;;;;;3.54;63.01;102442.66;5025827;28;20184;-68
2022/03/02 07:22:16;;;;;;;30.80;17.67;;;;;;;3.61;63.41;102449.25;5026994;28;20456;-68
2022/03/02 07:24:50;;;;;;;28.38;17.98;;;;;;;3.62;63.35;102442.22;5028315;28;20108;-68
2022/03/02 07:27:16;;;;;;;29.37;17.60;;;;;;;3.65;62.90;102440.28;5020569;28;20542;-67
2022/03/02 07:29:41;;;;;;;29.20;17.03;;;;;;;3.70;62.59;102446.09;5026632;28;20029;-68
2022/03/02 07:32:07;;;;;;;28.90;16.97;;;;;;;3.79;62.77;102433.41;5028449;28;20032;-68
2022/03/02 07:34:33;;;;;;;28.07;17.40;;;;;;;3.89;62.48;102439.81;5029024;28;20382;-68
2022/03/02 07:37:00;;;;;;;28.60;16.57;;;;;;;4.00;62.32;102440.88;5024289;28;20107;-67
2022/03/02 07:39:27;;;;;;;30.70;17.40;;;;;;;4.09;62.21;102444.78;5035115;28;20021;-67
2022/03/02 07:41:53;;;;;;;29.70;17.70;;;;;;;4.22;61.87;102444.91;5029831;28;20021;-67
2022/03/02 07:44:18;;;;;;;31.73;17.97;;;;;;;4.32;62.13;102439.00;5034164;28;20040;-66
2022/03/02 07:46:45;;;;;;;29.00;17.13;;;;;;;4.43;61.86;102441.00;5031149;28;20115;-67
2022/03/02 07:49:10;;;;;;;32.33;17.07;;;;;;;4.55;61.05;102442.03;5033266;28;20493;-67
2022/03/02 07:51:38;;;;;;;28.17;16.13;;;;;;;4.61;60.57;102439.88;5026028;28;20566;-67
2022/03/02 07:54:05;;;;;;;28.97;16.73;;;;;;;4.72;60.42;102434.00;5030687;28;20393;-67
2022/03/02 07:56:32;;;;;;;28.43;17.60;;;;;;;4.84;60.35;102435.00;5024990;28;20029;-67
2022/03/02 07:59:04;;;;;;;29.43;17.70;;;;;;;4.94;60.61;102430.91;5026456;28;20163;-66
2022/03/02 08:01:36;;;;;;;27.33;16.70;;;;;;;5.05;60.33;102431.06;5030114;28;20517;-67
2022/03/02 08:04:06;;;;;;;34.10;18.13;;;;;;;5.16;60.04;102436.50;5031126;28;20068;-66
2022/03/02 08:06:38;;;;;;;31.80;18.10;;;;;;;5.27;59.80;102439.31;5031259;28;20040;-67
2022/03/02 08:09:05;;;;;;;31.63;16.67;;;;;;;5.37;59.10;102441.34;5034286;28;20445;-67
2022/03/02 08:11:32;;;;;;;30.87;16.83;;;;;;;5.49;58.79;102433.53;5030570;28;20067;-66
2022/03/02 08:13:59;;;;;;;28.20;16.37;;;;;;;5.55;58.62;102435.75;5031495;28;20079;-66
2022/03/02 08:16:29;;;;;;;26.57;15.63;;;;;;;5.62;58.23;102436.22;5031609;28;20028;-67
2022/03/02 08:18:55;;;;;;;26.50;16.30;;;;;;;5.72;57.73;102432.03;5029075;28;20025;-67
2022/03/02 08:21:22;;;;;;;27.73;16.37;;;;;;;5.80;57.25;102432.38;5034909;28;20641;-67
2022/03/02 08:23:50;;;;;;;25.60;15.20;;;;;;;5.92;56.95;102432.53;5035761;28;20084;-68
2022/03/02 08:26:20;;;;;;;26.67;15.07;;;;;;;5.98;56.35;102424.22;5030787;28;20079;-67
2022/03/02 08:28:46;;;;;;;26.73;14.70;;;;;;;6.04;56.43;102419.38;5025584;28;20040;-67
2022/03/02 08:31:13;;;;;;;22.90;14.87;;;;;;;6.14;55.53;102411.72;5026280;28;20128;-66
2022/03/02 08:33:41;;;;;;;24.97;15.30;;;;;;;6.21;54.95;102420.91;5024902;28;20108;-67
2022/03/02 08:36:09;;;;;;;21.17;13.67;;;;;;;6.28;54.22;102413.41;5030474;28;20029;-66
2022/03/02 08:38:40;;;;;;;24.33;14.87;;;;;;;6.38;54.47;102411.84;5035253;28;20037;-66
2022/03/02 08:41:07;;;;;;;23.97;14.37;;;;;;;6.45;54.03;102413.97;5028401;28;20112;-66
2022/03/02 08:43:35;;;;;;;22.60;14.37;;;;;;;6.58;54.08;102421.88;5029641;28;20125;-67
2022/03/02 08:46:00;;;;;;;25.00;14.90;;;;;;;6.70;53.60;102413.13;5030959;28;20049;-67
2022/03/02 08:48:26;;;;;;;25.03;14.27;;;;;;;6.81;53.20;102412.34;5030166;28;20112;-66
2022/03/02 08:50:55;;;;;;;21.97;14.40;;;;;;;6.89;52.50;102415.28;5029849;28;20505;-67
2022/03/02 08:53:24;;;;;;;24.53;13.93;;;;;;;6.95;52.36;102411.41;5031667;28;20314;-68
2022/03/02 08:55:51;;;;;;;29.50;13.90;;;;;;;7.02;52.15;102415.28;5027961;28;20440;-66
2022/03/02 08:58:17;;;;;;;24.83;14.23;;;;;;;7.06;51.77;102403.53;5033240;28;20126;-66
2022/03/02 09:00:42;;;;;;;25.03;13.80;;;;;;;7.06;50.97;102412.31;5027538;28;20473;-66
2022/03/02 09:03:13;;;;;;;24.97;13.83;;;;;;;7.07;50.80;102406.06;5027952;28;20029;-67
2022/03/02 09:05:39;;;;;;;20.97;13.87;;;;;;;7.15;50.67;102403.72;5026901;28;20544;-66
2022/03/02 09:08:06;;;;;;;20.97;13.60;;;;;;;7.19;50.19;102404.34;5027954;28;20028;-66
2022/03/02 09:10:32;;;;;;;23.17;13.70;;;;;;;7.27;50.32;102399.38;5026936;28;20489;-66
2022/03/02 09:12:59;;;;;;;23.10;13.53;;;;;;;7.32;50.45;102402.53;5029527;28;20115;-65
2022/03/02 09:15:25;;;;;;;22.93;13.40;;;;;;;7.33;50.28;102400.72;5027114;28;20025;-66
2022/03/02 09:17:51;;;;;;;23.93;13.83;;;;;;;7.40;50.02;102402.81;5027224;28;20036;-66
2022/03/02 09:20:16;;;;;;;22.93;13.77;;;;;;;7.45;50.26;102402.47;5022183;28;20034;-66
2022/03/02 09:22:42;;;;;;;21.57;14.50;;;;;;;7.46;50.01;102398.84;5028527;28;20520;-66
2022/03/02 09:25:08;;;;;;;26.13;14.03;;;;;;;7.50;50.06;102394.19;5029092;28;20107;-66
2022/03/02 09:27:34;;;;;;;20.13;13.67;;;;;;;7.57;50.03;102391.00;5030082;28;20022;-67
2022/03/02 09:30:03;;;;;;;21.73;13.53;;;;;;;7.59;49.86;102388.25;5028638;28;20432;-67
2022/03/02 09:32:31;;;;;;;22.40;13.60;;;;;;;7.64;49.50;102388.75;5030010;28;20113;-67
2022/03/02 09:34:59;;;;;;;25.10;13.53;;;;;;;7.69;49.07;102383.97;5029473;28;20049;-66
2022/03/02 09:37:26;;;;;;;23.27;13.48;;;;;;;7.81;48.90;102387.50;5029324;28;20382;-66
2022/03/02 09:39:51;;;;;;;21.30;13.20;;;;;;;7.92;48.97;102387.53;5025085;28;20029;-67
2022/03/02 09:42:26;;;;;;;23.77;13.57;;;;;;;8.03;49.27;102380.47;5025545;28;20034;-67
2022/03/02 09:45:11;;;;;;;26.67;13.90;;;;;;;8.14;49.38;102379.66;5029591;28;20096;-66
2022/03/02 09:47:44;;;;;;;20.90;13.13;;;;;;;8.23;48.31;102376.31;5022689;28;20034;-66
2022/03/02 09:50:17;;;;;;;22.83;13.80;;;;;;;8.33;48.11;102379.97;5022628;28;20029;-66
2022/03/02 09:52:45;;;;;;;23.65;13.25;;;;;;;8.51;47.88;102375.06;5029473;28;20022;-67
2022/03/02 09:55:13;;;;;;;24.58;13.35;;;;;;;8.69;47.65;102375.44;5029131;28;20491;-66
2022/03/02 09:57:48;;;;;;;23.38;13.68;;;;;;;8.81;47.31;102381.56;5028847;28;20101;-66
2022/03/02 10:00:15;;;;;;;21.77;13.25;;;;;;;8.77;46.74;102373.00;5026526;28;20025;-66
2022/03/02 10:02:46;;;;;;;20.33;13.48;;;;;;;8.78;46.41;102368.56;5029476;28;20099;-67
2022/03/02 10:05:18;;;;;;;25.10;13.85;;;;;;;8.87;46.13;102373.97;5029122;28;20048;-66
2022/03/02 10:07:54;;;;;;;21.75;13.13;;;;;;;8.99;45.88;102375.66;5035398;28;20574;-66
2022/03/02 10:10:23;;;;;;;21.90;13.20;;;;;;;9.03;45.88;102376.25;5027975;28;20140;-66
2022/03/02 10:12:54;;;;;;;25.15;13.80;;;;;;;9.06;45.61;102364.56;5029260;28;20033;-66
2022/03/02 10:15:19;;;;;;;20.77;12.98;;;;;;;9.18;45.37;102376.81;5029097;28;20033;-66
2022/03/02 10:17:49;;;;;;;25.20;13.52;;;;;;;9.20;45.58;102375.72;5028703;28;20099;-66
2022/03/02 10:20:21;;;;;;;22.67;13.63;;;;;;;9.24;45.10;102371.84;5025955;28;20013;-66
2022/03/02 10:22:46;;;;;;;24.40;13.73;;;;;;;9.29;45.45;102375.00;5028966;28;20025;-66
2022/03/02 10:25:14;;;;;;;23.50;14.18;;;;;;;9.34;44.57;102371.13;5028868;28;20029;-66
2022/03/02 10:28:04;;;;;;;21.42;14.52;;;;;;;9.40;45.09;102373.25;5028534;28;20030;-66
2022/03/02 10:30:35;;;;;;;23.35;13.65;;;;;;;9.50;45.26;102372.38;5022739;28;20035;-66
2022/03/02 10:33:22;;;;;;;23.45;14.48;;;;;;;9.56;45.66;102366.59;5029328;28;20033;-66
2022/03/02 10:36:05;;;;;;;22.60;14.10;;;;;;;9.60;45.09;102360.06;5028533;28;20026;-66
2022/03/02 10:39:00;;;;;;;22.92;13.95;;;;;;;9.60;44.63;102357.41;5028676;28;20061;-66
2022/03/02 10:41:27;;;;;;;23.35;13.90;;;;;;;9.59;44.71;102350.41;5024943;28;20042;-66
2022/03/02 10:44:21;;;;;;;20.75;12.98;;;;;;;9.54;44.46;102349.97;5028547;28;20033;-66
2022/03/02 10:46:57;;;;;;;27.80;13.10;;;;;;;9.53;44.91;102353.56;5028476;28;20021;-67
2022/03/02 10:49:26;;;;;;;22.85;13.30;;;;;;;9.55;44.07;102354.28;5022600;28;20065;-66
2022/03/02 10:51:55;;;;;;;23.15;13.57;;;;;;;9.53;43.91;102356.19;5025814;28;20029;-66
2022/03/02 10:54:23;;;;;;;20.17;12.50;;;;;;;9.46;43.43;102344.44;5028639;28;20034;-66
2022/03/02 10:56:52;;;;;;;21.55;12.77;;;;;;;9.37;42.37;102357.59;5025272;28;20445;-67
2022/03/02 10:59:21;;;;;;;21.88;13.02;;;;;;;9.34;42.39;102363.16;5027441;28;20021;-66
2022/03/02 11:01:49;;;;;;;19.42;12.20;;;;;;;9.31;43.07;102359.78;5028932;28;20140;-66
2022/03/02 11:04:18;;;;;;;22.55;13.48;;;;;;;9.30;43.07;102354.63;5028512;28;20501;-66
2022/03/02 11:06:44;;;;;;;22.13;12.50;;;;;;;9.26;42.95;102345.25;5027855;28;20040;-67
2022/03/02 11:09:09;;;;;;;22.70;12.90;;;;;;;9.19;42.72;102342.22;5030366;28;20033;-66
2022/03/02 11:11:37;;;;;;;23.60;12.45;;;;;;;9.15;43.01;102338.13;5032382;28;20468;-67
2022/03/02 11:14:04;;;;;;;20.65;12.55;;;;;;;9.15;42.90;102337.31;5032182;28;20109;-66
2022/03/02 11:16:30;;;;;;;20.75;12.65;;;;;;;9.15;43.04;102350.56;5031668;28;20079;-66
2022/03/02 11:19:08;;;;;;;19.00;12.50;;;;;;;9.13;42.54;102342.72;5030696;28;20029;-65